aviador You're here:

YPPD Decoded Metar

PORT HEDLAND in AUSTRALIA
Report Time2017-05-30 11:00:00
UTC Time2017-05-30 11:12:37
Flight Rules unknown UNKNOWN
Wind260° at 04 kt
W.Decomp.*RWY 32: 1.9 kt HW 3.5 kt LCW
RWY 18: 0.8 kt HW 3.9 kt RCW
W.Rank260° ranks 17
Current wind is below 260° avg. (7.5)
VisibilityN/A
Phenomena:N/A
Clouds:N/A
Expected CloudBase > 2,800 ft AGL from Temp-Dew spread
CeilingNone
Temp23°C (ISA +8)
Dew Point16°C (65% RH)
QNH1016 hPa
Density Alt1,096 ft
Elevation20 ft
Report Wrong Elevation
Raw Report
METAR YPPD 301100Z AUTO 26004KT //// // NCD 23/16 Q1016=

Extra information for YPPD:More info

Metar Taf Metar & Taf Last 4 Metars F.Rules Stats Wind Profile Meteogram Temp Stats Airport Information Weather charts Add Link Nearby VenuesMetar ALERT Operation Metar Decoded Social comments